Thunder radar more information blitzortung!


Radar de pluja more information rain snow radar


Visita la nostra xarxa de llocs de meteo:

Template documentation
and downloads

And another site



No particular awareness of the weather is required.    There are no Weather-warnings

Pagina Historial Weather Underground text

Diari Resum Juliol 5, 2017 Unitats:  Imperial    Mètric   Tant
« Previous Dia
SegĂźent Dia »
Diari Setmana Mensual Anual Personalitzada
  Maxima: Minima: Media:
Temperatura: TemperatureC °F 16.1 °F 24.9 °F
Punt de rosada: DewpointC °F 10.4 °F 14.2 °F
Humitat: Humidity % 33 % 53 %
Wind Speed: WindSpeedKMH mph 0.0 mph 8.7 mph
RĂ fegues de vent: WindSpeedGustKMH mph - -
Vent:- - ESE
Pression baro: PressurehPa in 1012.8 in -
Precipitacions: 0.0 in    
Historical Graphs
 
 
Dades de taula per Juliol 5, 2017
Temps Temperatura Punt de rosada Pression baro Vent Wind Speed RĂ fegues de vent Humitat Rainfall Rate (Hourly)
TemperatureC °F DewpointC °F PressurehPa in Calm     Humidity % HourlyPrecipMM in
00:04 21.5 °F 11.5 °F 1015.8 in Calm     53 % 0.0 in
00:05 16.5 °F 10.8 °F 1015.8 in Calm     69 % 0.0 in
00:09 21.3 °F 11.3 °F 1015.8 in Calm     53 % 0.0 in
00:15 16.6 °F 10.9 °F 1016.8 in Calm   1.6 mph 69 % 0.0 in
00:25 16.6 °F 10.9 °F 1016.8 in Calm   1.6 mph 69 % 0.0 in
00:35 16.5 °F 10.8 °F 1015.8 in Calm     69 % 0.0 in
00:45 16.4 °F 10.7 °F 1015.8 in Calm     69 % 0.0 in
00:55 16.3 °F 10.6 °F 1015.8 in Calm     69 % 0.0 in
01:05 16.1 °F 10.4 °F 1015.8 in Calm     69 % 0.0 in
01:15 16.2 °F 10.7 °F 1015.8 in Calm     70 % 0.0 in
01:25 16.2 °F 10.7 °F 1015.8 in Calm     70 % 0.0 in
01:35 16.4 °F 10.9 °F 1015.8 in Calm   3.2 mph 70 % 0.0 in
01:45 16.5 °F 11.0 °F 1015.8 in Calm   3.2 mph 70 % 0.0 in
01:55 16.6 °F 10.9 °F 1015.8 in Calm     69 % 0.0 in
02:05 16.8 °F 11.1 °F 1015.8 in NE 1.6 mph 1.6 mph 69 % 0.0 in
02:15 17.0 °F 11.1 °F 1015.8 in Calm   1.6 mph 68 % 0.0 in
02:25 17.5 °F 11.1 °F 1015.8 in ENE 3.2 mph 4.8 mph 66 % 0.0 in
02:35 16.7 °F 10.8 °F 1015.8 in SW 3.2 mph 4.8 mph 68 % 0.0 in
02:45 16.8 °F 10.8 °F 1015.8 in SW 1.6 mph 3.2 mph 68 % 0.0 in
02:55 17.7 °F 11.5 °F 1015.8 in Calm   3.2 mph 67 % 0.0 in
03:05 19.0 °F 12.1 °F 1015.8 in South 1.6 mph 3.2 mph 64 % 0.0 in
03:15 18.8 °F 11.8 °F 1015.8 in Calm   3.2 mph 64 % 0.0 in
03:25 19.2 °F 11.7 °F 1015.8 in SSW 3.2 mph 3.2 mph 62 % 0.0 in
03:35 19.0 °F 11.3 °F 1015.8 in SW 1.6 mph 4.8 mph 61 % 0.0 in
03:45 19.4 °F 11.7 °F 1015.8 in SW 3.2 mph 3.2 mph 61 % 0.0 in
03:55 20.2 °F 11.9 °F 1015.8 in SW 1.6 mph 3.2 mph 59 % 0.0 in
04:05 21.8 °F 12.9 °F 1015.8 in SW 1.6 mph 3.2 mph 57 % 0.0 in
04:15 23.0 °F 13.2 °F 1014.8 in WNW 1.6 mph 3.2 mph 54 % 0.0 in
04:25 22.9 °F 12.8 °F 1014.8 in NNE 3.2 mph 3.2 mph 53 % 0.0 in
04:35 23.8 °F 13.3 °F 1015.8 in NNE 1.6 mph 4.8 mph 52 % 0.0 in
04:45 24.0 °F 12.9 °F 1015.8 in NE 3.2 mph 4.8 mph 50 % 0.0 in
04:55 24.4 °F 13.3 °F 1015.8 in ENE 1.6 mph 4.8 mph 50 % 0.0 in
05:05 24.5 °F 13.1 °F 1014.8 in NE 3.2 mph 4.8 mph 49 % 0.0 in
05:15 25.4 °F 13.3 °F 1015.8 in NE 1.6 mph 3.2 mph 47 % 0.0 in
05:25 25.7 °F 13.6 °F 1015.8 in NNE 1.6 mph 3.2 mph 47 % 0.0 in
05:35 25.8 °F 12.9 °F 1014.8 in SE 3.2 mph 6.4 mph 45 % 0.0 in
05:45 26.2 °F 12.6 °F 1015.8 in SE 1.6 mph 4.8 mph 43 % 0.0 in
05:55 26.4 °F 12.8 °F 1015.8 in ESE 4.8 mph 8.0 mph 43 % 0.0 in
06:05 27.5 °F 13.1 °F 1014.8 in ESE 1.6 mph 4.8 mph 41 % 0.0 in
06:15 28.1 °F 13.2 °F 1015.8 in SSE 1.6 mph 4.8 mph 40 % 0.0 in
11:15 28.1 °F 13.6 °F 1015.8 in SE 6.1 mph 6.1 mph 41 % 0.0 in
11:20 27.7 °F 12.9 °F 1015.8 in SSE 5.6 mph 5.6 mph 40 % 0.0 in
11:25 28.1 °F 13.2 °F 1014.8 in WNW 3.7 mph 3.7 mph 40 % 0.0 in
11:30 28.2 °F 12.9 °F 1014.8 in SSE 5.6 mph 5.6 mph 39 % 0.0 in
11:35 27.9 °F 12.7 °F 1014.8 in NE 7.4 mph 7.4 mph 39 % 0.0 in
11:40 28.2 °F 12.1 °F 1015.8 in East 7.4 mph 7.4 mph 37 % 0.0 in
11:45 28.3 °F 12.6 °F 1015.8 in SW 7.4 mph 7.4 mph 38 % 0.0 in
11:50 28.9 °F 12.3 °F 1015.8 in SE 7.4 mph 7.4 mph 36 % 0.0 in
11:55 28.8 °F 12.7 °F 1014.8 in ESE 3.7 mph 3.9 mph 37 % 0.0 in
12:00 29.3 °F 12.3 °F 1014.8 in ESE 5.6 mph 5.6 mph 35 % 0.0 in
12:05 29.2 °F 12.2 °F 1014.8 in East 7.4 mph 7.4 mph 35 % 0.0 in
12:10 29.0 °F 11.6 °F 1015.8 in NNE 9.3 mph 9.3 mph 34 % 0.0 in
12:15 29.2 °F 11.7 °F 1015.8 in ESE 9.3 mph 9.3 mph 34 % 0.0 in
12:20 28.8 °F 11.8 °F 1015.8 in NE 7.4 mph 7.4 mph 35 % 0.0 in
12:25 28.8 °F 11.4 °F 1016.8 in WSW 13.0 mph 13.0 mph 34 % 0.0 in
12:30 29.1 °F 11.2 °F 1016.8 in ENE 7.4 mph 7.4 mph 33 % 0.0 in
12:35 29.6 °F 12.1 °F 1016.8 in North 3.7 mph 3.7 mph 34 % 0.0 in
12:40 30.2 °F 12.2 °F 1015.8 in ENE 6.4 mph 6.4 mph 33 % 0.0 in
12:45 29.8 °F 12.2 °F 1015.8 in ESE 9.3 mph 9.3 mph 34 % 0.0 in
12:50 29.3 °F 12.7 °F 1015.8 in NE 13.0 mph 13.0 mph 36 % 0.0 in
12:55 29.3 °F 13.5 °F 1015.8 in ENE 18.5 mph 18.5 mph 38 % 0.0 in
13:00 29.0 °F 13.7 °F 1015.8 in ENE 11.1 mph 11.1 mph 39 % 0.0 in
13:01 29.1 °F 13.7 °F 1015.8 in ESE 11.1 mph 11.1 mph 39 % 0.0 in
13:06 28.8 °F 14.2 °F 1015.8 in ENE 13.0 mph 13.0 mph 41 % 0.0 in
13:11 28.9 °F 14.3 °F 1015.8 in SSE 19.8 mph 19.8 mph 41 % 0.0 in
13:16 28.5 °F 14.3 °F 1015.8 in NNE 11.1 mph 11.1 mph 42 % 0.0 in
13:21 28.7 °F 14.9 °F 1015.8 in ESE 16.7 mph 16.7 mph 43 % 0.0 in
13:26 29.2 °F 14.9 °F 1014.8 in East 12.6 mph 12.6 mph 42 % 0.0 in
13:31 28.9 °F 15.1 °F 1014.8 in ESE 16.7 mph 16.7 mph 43 % 0.0 in
13:36 28.9 °F 15.1 °F 1014.8 in ENE 13.0 mph 13.0 mph 43 % 0.0 in
13:41 28.8 °F 15.0 °F 1014.8 in East 13.0 mph 13.0 mph 43 % 0.0 in
13:46 28.7 °F 14.9 °F 1014.8 in NE 13.0 mph 13.0 mph 43 % 0.0 in
13:51 29.0 °F 14.8 °F 1014.8 in ESE 9.3 mph 9.3 mph 42 % 0.0 in
13:56 28.8 °F 15.0 °F 1014.8 in SE 13.0 mph 13.0 mph 43 % 0.0 in
14:01 29.0 °F 15.2 °F 1014.8 in ENE 16.7 mph 16.7 mph 43 % 0.0 in
14:06 28.8 °F 15.3 °F 1014.8 in ESE 13.7 mph 13.7 mph 44 % 0.0 in
14:11 28.6 °F 15.2 °F 1014.8 in ESE 16.7 mph 16.7 mph 44 % 0.0 in
14:16 28.8 °F 15.0 °F 1014.8 in ESE 16.7 mph 16.7 mph 43 % 0.0 in
14:21 29.0 °F 14.8 °F 1014.8 in ESE 16.7 mph 16.7 mph 42 % 0.0 in
14:26 28.8 °F 15.0 °F 1014.8 in ESE 13.0 mph 13.0 mph 43 % 0.0 in
14:31 29.0 °F 14.8 °F 1014.8 in East 18.5 mph 18.5 mph 42 % 0.0 in
14:36 29.2 °F 14.9 °F 1014.8 in East 22.2 mph 22.2 mph 42 % 0.0 in
14:41 28.9 °F 15.1 °F 1014.8 in ESE 20.4 mph 20.4 mph 43 % 0.0 in
14:46 29.0 °F 14.8 °F 1014.8 in ESE 11.1 mph 11.1 mph 42 % 0.0 in
14:51 29.3 °F 15.1 °F 1014.8 in SE 17.2 mph 17.2 mph 42 % 0.0 in
14:56 28.9 °F 15.1 °F 1014.8 in East 16.7 mph 16.7 mph 43 % 0.0 in
15:01 29.1 °F 14.9 °F 1014.8 in ESE 14.8 mph 14.8 mph 42 % 0.0 in
15:06 28.8 °F 15.0 °F 1014.8 in East 20.4 mph 20.4 mph 43 % 0.0 in
15:11 29.0 °F 14.8 °F 1014.8 in ENE 16.7 mph 16.7 mph 42 % 0.0 in
15:16 29.0 °F 14.8 °F 1014.8 in ENE 8.7 mph 8.7 mph 42 % 0.0 in
15:21 29.3 °F 15.1 °F 1014.8 in ESE 20.4 mph 20.4 mph 42 % 0.0 in
15:26 28.9 °F 15.1 °F 1014.8 in ESE 18.5 mph 18.5 mph 43 % 0.0 in
15:31 28.8 °F 15.0 °F 1014.8 in ESE 16.1 mph 16.1 mph 43 % 0.0 in
15:36 28.9 °F 15.1 °F 1014.8 in ESE 13.0 mph 13.0 mph 43 % 0.0 in
15:41 29.2 °F 14.6 °F 1014.8 in ESE 14.0 mph 14.0 mph 41 % 0.0 in
15:46 28.7 °F 14.5 °F 1014.8 in South 16.7 mph 16.7 mph 42 % 0.0 in
15:51 29.2 °F 14.6 °F 1014.8 in ESE 12.2 mph 12.2 mph 41 % 0.0 in
15:57 29.0 °F 14.4 °F 1014.8 in ESE 16.7 mph 16.7 mph 41 % 0.0 in
16:02 29.1 °F 14.5 °F 1014.8 in ENE 13.0 mph 13.0 mph 41 % 0.0 in
16:07 29.2 °F 14.2 °F 1014.8 in NE 16.4 mph 16.4 mph 40 % 0.0 in
16:12 28.8 °F 14.2 °F 1014.8 in ESE 14.8 mph 14.8 mph 41 % 0.0 in
16:17 29.1 °F 14.1 °F 1014.8 in ESE 14.8 mph 14.8 mph 40 % 0.0 in
16:22 29.2 °F 13.8 °F 1014.8 in East 9.3 mph 9.3 mph 39 % 0.0 in
16:27 28.7 °F 13.8 °F 1014.8 in ESE 9.3 mph 9.3 mph 40 % 0.0 in
16:32 29.0 °F 13.2 °F 1014.8 in ESE 18.5 mph 18.5 mph 38 % 0.0 in
16:37 29.0 °F 13.2 °F 1014.8 in ESE 13.0 mph 13.0 mph 38 % 0.0 in
16:42 29.2 °F 13.4 °F 1014.8 in ESE 8.7 mph 8.7 mph 38 % 0.0 in
16:47 29.1 °F 13.3 °F 1014.8 in SSE 16.7 mph 16.7 mph 38 % 0.0 in
16:52 29.0 °F 13.2 °F 1014.8 in South 18.5 mph 18.5 mph 38 % 0.0 in
16:57 29.2 °F 13.4 °F 1014.8 in NNE 11.1 mph 11.1 mph 38 % 0.0 in
17:02 29.0 °F 13.2 °F 1014.8 in ESE 14.8 mph 14.8 mph 38 % 0.0 in
17:07 29.0 °F 13.2 °F 1014.8 in SE 9.3 mph 9.7 mph 38 % 0.0 in
17:12 28.9 °F 13.6 °F 1014.8 in SE 9.3 mph 9.3 mph 39 % 0.0 in
17:17 28.9 °F 13.6 °F 1014.8 in East 11.1 mph 11.1 mph 39 % 0.0 in
17:22 29.0 °F 13.2 °F 1014.8 in ENE 13.7 mph 13.7 mph 38 % 0.0 in
17:23 28.8 °F 13.4 °F 1014.8 in ESE 13.0 mph 13.0 mph 39 % 0.0 in
17:28 28.4 °F 13.1 °F 1013.8 in ESE 20.4 mph 20.4 mph 39 % 0.0 in
17:33 28.4 °F 13.1 °F 1013.8 in ESE 14.8 mph 14.8 mph 39 % 0.0 in
17:38 28.8 °F 13.4 °F 1013.8 in ESE 11.1 mph 11.1 mph 39 % 0.0 in
17:43 28.7 °F 13.4 °F 1013.8 in ESE 18.5 mph 18.5 mph 39 % 0.0 in
17:44 28.5 °F 13.2 °F 1013.8 in ESE 19.0 mph 19.0 mph 39 % 0.0 in
17:49 28.1 °F 13.2 °F 1013.8 in ESE 16.9 mph 16.9 mph 40 % 0.0 in
17:54 28.2 °F 13.7 °F 1013.8 in ESE 13.7 mph 13.7 mph 41 % 0.0 in
17:59 28.3 °F 13.8 °F 1013.8 in East 13.0 mph 13.0 mph 41 % 0.0 in
18:04 28.0 °F 13.5 °F 1013.8 in ESE 16.7 mph 16.7 mph 41 % 0.0 in
18:09 28.1 °F 13.6 °F 1013.8 in ENE 13.0 mph 13.0 mph 41 % 0.0 in
18:14 28.3 °F 14.2 °F 1013.8 in SSE 13.0 mph 13.0 mph 42 % 0.0 in
18:19 27.9 °F 13.8 °F 1013.8 in East 20.4 mph 20.4 mph 42 % 0.0 in
18:24 27.6 °F 13.2 °F 1013.8 in SE 18.5 mph 18.5 mph 41 % 0.0 in
18:29 27.7 °F 14.0 °F 1013.8 in ESE 14.8 mph 14.8 mph 43 % 0.0 in
18:34 27.7 °F 13.6 °F 1013.8 in ESE 16.7 mph 16.7 mph 42 % 0.0 in
18:35 27.7 °F 13.6 °F 1013.8 in NNE 16.7 mph 16.7 mph 42 % 0.0 in
18:40 27.4 °F 13.7 °F 1013.8 in ESE 11.1 mph 11.1 mph 43 % 0.0 in
18:45 27.6 °F 14.2 °F 1013.8 in ESE 9.3 mph 9.5 mph 44 % 0.0 in
18:50 27.4 °F 14.1 °F 1013.8 in East 11.1 mph 11.1 mph 44 % 0.0 in
18:55 27.4 °F 14.1 °F 1013.8 in ESE 13.0 mph 13.0 mph 44 % 0.0 in
19:00 27.1 °F 13.8 °F 1013.8 in ESE 13.0 mph 13.0 mph 44 % 0.0 in
19:05 27.1 °F 14.2 °F 1013.8 in ESE 14.8 mph 14.8 mph 45 % 0.0 in
19:10 27.0 °F 14.1 °F 1012.8 in ESE 13.0 mph 13.0 mph 45 % 0.0 in
19:15 27.0 °F 14.1 °F 1012.8 in ESE 13.0 mph 13.0 mph 45 % 0.0 in
19:20 27.0 °F 14.4 °F 1012.8 in ESE 9.3 mph 9.3 mph 46 % 0.0 in
19:25 26.8 °F 14.6 °F 1013.8 in ESE 11.1 mph 11.1 mph 47 % 0.0 in
19:30 26.7 °F 14.8 °F 1013.8 in East 13.0 mph 13.0 mph 48 % 0.0 in
19:35 26.6 °F 14.7 °F 1013.8 in ESE 17.2 mph 17.2 mph 48 % 0.0 in
19:40 26.5 °F 14.9 °F 1013.8 in ENE 13.0 mph 13.0 mph 49 % 0.0 in
19:45 26.3 °F 14.7 °F 1013.8 in ESE 13.0 mph 13.0 mph 49 % 0.0 in
19:50 26.2 °F 14.9 °F 1013.8 in ESE 16.7 mph 16.7 mph 50 % 0.0 in
19:55 26.0 °F 14.8 °F 1013.8 in ENE 11.1 mph 11.1 mph 50 % 0.0 in
20:00 26.1 °F 15.2 °F 1013.8 in ESE 13.0 mph 13.0 mph 51 % 0.0 in
20:05 25.9 °F 15.0 °F 1013.8 in ENE 14.8 mph 14.8 mph 51 % 0.0 in
20:10 25.8 °F 15.2 °F 1013.8 in ESE 11.9 mph 11.9 mph 52 % 0.0 in
20:15 25.6 °F 15.3 °F 1013.8 in ESE 14.8 mph 14.8 mph 53 % 0.0 in
20:16 25.6 °F 15.3 °F 1013.8 in East 14.8 mph 14.8 mph 53 % 0.0 in
20:21 25.5 °F 15.5 °F 1013.8 in East 13.0 mph 13.0 mph 54 % 0.0 in
20:25 20.7 °F 16.3 °F 1016.8 in NW 3.2 mph 3.2 mph 76 % 0.0 in
20:26 25.5 °F 15.5 °F 1014.8 in ENE 9.3 mph 9.3 mph 54 % 0.0 in
20:31 25.4 °F 15.4 °F 1014.8 in ENE 11.1 mph 11.1 mph 54 % 0.0 in
20:35 20.7 °F 16.5 °F 1017.8 in WNW 1.6 mph 3.2 mph 77 % 0.0 in
20:36 25.3 °F 15.6 °F 1014.8 in East 13.0 mph 13.0 mph 55 % 0.0 in
20:41 25.1 °F 15.4 °F 1014.8 in ESE 9.3 mph 9.5 mph 55 % 0.0 in
20:45 20.6 °F 16.6 °F 1017.8 in Calm   1.6 mph 78 % 0.0 in
20:46 25.0 °F 15.6 °F 1014.8 in ESE 8.7 mph 8.7 mph 56 % 0.0 in
20:51 24.8 °F 16.0 °F 1014.8 in ENE 13.0 mph 13.0 mph 58 % 0.0 in
20:55 20.6 °F 16.6 °F 1017.8 in Calm   3.2 mph 78 % 0.0 in
20:56 24.6 °F 16.1 °F 1014.8 in SE 13.0 mph 13.0 mph 59 % 0.0 in
21:01 24.4 °F 16.1 °F 1014.8 in ESE 14.8 mph 14.8 mph 60 % 0.0 in
21:05 20.6 °F 16.6 °F 1016.8 in Calm   1.6 mph 78 % 0.0 in
21:06 24.3 °F 16.3 °F 1014.8 in ESE 11.1 mph 11.1 mph 61 % 0.0 in
21:11 24.2 °F 16.4 °F 1014.8 in ESE 11.1 mph 11.1 mph 62 % 0.0 in
21:15 20.6 °F 16.8 °F 1017.8 in NNE 1.6 mph 3.2 mph 79 % 0.0 in
21:16 24.0 °F 16.3 °F 1014.8 in ENE 9.3 mph 9.3 mph 62 % 0.0 in
21:21 23.8 °F 16.3 °F 1014.8 in ENE 11.1 mph 11.1 mph 63 % 0.0 in
21:25 20.5 °F 16.6 °F 1017.8 in Calm   3.2 mph 78 % 0.0 in
21:26 23.7 °F 16.5 °F 1014.8 in ESE 11.1 mph 11.1 mph 64 % 0.0 in
21:31 23.6 °F 16.2 °F 1014.8 in ENE 9.3 mph 9.3 mph 63 % 0.0 in
21:35 20.0 °F 16.1 °F 1016.8 in Calm   1.6 mph 78 % 0.0 in
21:36 23.5 °F 16.3 °F 1014.8 in ENE 9.3 mph 9.3 mph 64 % 0.0 in
21:41 23.3 °F 16.1 °F 1014.8 in East 7.4 mph 7.4 mph 64 % 0.0 in
21:45 19.9 °F 16.2 °F 1016.8 in Calm   1.6 mph 79 % 0.0 in
21:46 23.2 °F 16.3 °F 1014.8 in NNE 9.3 mph 9.3 mph 65 % 0.0 in
21:51 23.1 °F 16.2 °F 1014.8 in East 3.7 mph 3.7 mph 65 % 0.0 in
21:55 19.9 °F 16.3 °F 1016.8 in SE 1.6 mph 3.2 mph 80 % 0.0 in
21:56 23.1 °F 16.6 °F 1014.8 in ESE 9.3 mph 9.3 mph 67 % 0.0 in
22:01 23.0 °F 16.6 °F 1014.8 in NE 11.1 mph 11.1 mph 67 % 0.0 in
22:05 19.8 °F 16.2 °F 1015.8 in ENE 1.6 mph 3.2 mph 80 % 0.0 in
22:06 23.0 °F 16.8 °F 1014.8 in East 9.3 mph 9.3 mph 68 % 0.0 in
22:11 22.9 °F 16.7 °F 1015.8 in ESE 9.3 mph 9.3 mph 68 % 0.0 in
22:15 19.7 °F 15.9 °F 1015.8 in NE 3.2 mph 3.2 mph 79 % 0.0 in
22:16 22.8 °F 16.6 °F 1015.8 in East 9.3 mph 9.3 mph 68 % 0.0 in
22:21 22.7 °F 16.5 °F 1015.8 in ESE 5.6 mph 5.6 mph 68 % 0.0 in
22:25 19.5 °F 15.8 °F 1015.8 in NNW 1.6 mph 3.2 mph 79 % 0.0 in
22:26 22.6 °F 16.4 °F 1015.8 in ESE 5.0 mph 5.0 mph 68 % 0.0 in
22:31 22.5 °F 16.5 °F 1015.8 in ENE 5.6 mph 5.6 mph 69 % 0.0 in
22:35 19.5 °F 15.6 °F 1016.8 in WNW 1.6 mph 1.6 mph 78 % 0.0 in
22:36 22.6 °F 16.8 °F 1015.8 in East 11.1 mph 11.1 mph 70 % 0.0 in
22:41 22.5 °F 16.5 °F 1014.8 in ENE 5.6 mph 5.6 mph 69 % 0.0 in
22:45 19.7 °F 15.8 °F 1015.8 in North 1.6 mph 3.2 mph 78 % 0.0 in
22:46 22.4 °F 16.4 °F 1014.8 in ENE 5.6 mph 5.6 mph 69 % 0.0 in
22:51 22.3 °F 16.6 °F 1014.8 in NE 3.7 mph 3.7 mph 70 % 0.0 in
22:55 19.2 °F 15.1 °F 1015.8 in WSW 4.8 mph 4.8 mph 77 % 0.0 in
22:56 22.2 °F 16.2 °F 1014.8 in NNE 3.7 mph 3.7 mph 69 % 0.0 in
23:01 22.2 °F 16.4 °F 1014.8 in East 3.7 mph 3.9 mph 70 % 0.0 in
23:05 19.1 °F 15.2 °F 1015.8 in WSW 1.6 mph 6.4 mph 78 % 0.0 in
23:06 22.1 °F 16.4 °F 1014.8 in NE 5.6 mph 5.6 mph 70 % 0.0 in
23:11 22.0 °F 16.3 °F 1015.8 in East 3.7 mph 3.7 mph 70 % 0.0 in
23:15 19.2 °F 15.4 °F 1015.8 in WSW 1.6 mph 3.2 mph 79 % 0.0 in
23:16 22.0 °F 16.5 °F 1015.8 in East 3.7 mph 3.7 mph 71 % 0.0 in
23:21 21.9 °F 16.8 °F 1015.8 in East 5.0 mph 5.0 mph 73 % 0.0 in
23:25 18.9 °F 15.2 °F 1015.8 in WSW 1.6 mph 3.2 mph 79 % 0.0 in
23:26 21.9 °F 17.1 °F 1015.8 in East 5.8 mph 5.8 mph 74 % 0.0 in
23:31 21.8 °F 16.9 °F 1015.8 in ENE 5.6 mph 5.6 mph 74 % 0.0 in
23:35 18.9 °F 15.6 °F 1015.8 in Calm   1.6 mph 81 % 0.0 in
23:36 21.7 °F 16.9 °F 1015.8 in NE 3.7 mph 3.7 mph 74 % 0.0 in
23:41 21.7 °F 16.9 °F 1015.8 in NNE 3.7 mph 3.7 mph 74 % 0.0 in
23:45 19.0 °F 15.1 °F 1015.8 in NE 1.6 mph 3.2 mph 78 % 0.0 in
23:46 21.7 °F 16.9 °F 1015.8 in NE 2.6 mph 2.6 mph 74 % 0.0 in
23:51 21.6 °F 17.0 °F 1015.8 in East 3.7 mph 3.7 mph 75 % 0.0 in
23:55 18.8 °F 14.9 °F 1015.8 in NE 4.8 mph 6.4 mph 78 % 0.0 in
23:56 21.5 °F 16.9 °F 1015.8 in Calm     75 % 0.0 in
Meteo Sesrovires
Elogis d' Weather Underground - 1.5 mb

Guio original per  Jim McMurry - jmcmurry@mwt.net Adaptat per a la plantilla per  Wim van der Kuil - Leuven-Template.eu

Trobareu la nostra informacio del temps tambe a:

Weather Underground

AWEKAS